Terminal Aerodrome Forecast
Issued by NWS

Home | Current Version | Previous Version | Text Only | Print | Product List | Glossary On
Versions: 1 2 3 4 5 6 7 8 9 10 11 12 13 14 15 16 17 18 19 20 21 22 23 24
000
FTUS45 KBOU 181125
TAFBJC
TAF
KBJC 181125Z 1812/1912 VRB03KT P6SM SKC
     FM181400 30006KT P6SM FEW250
     FM181700 26007KT P6SM FEW250
     FM182100 15007KT P6SM FEW250
     FM190100 26010KT P6SM FEW250
      TEMPO 1908/1912 27016G30KT=

USA.gov is the U.S. government's official web portal to all federal, state and local government web resources and services.